Time;durP1;ratioP1;P1;durP2;ratioP2;P2;SDS_P1;SDS_P2;PMS_P1;PMS_P2;Temp;Humidity;BMP_temperature;BMP_pressure;BME280_temperature;BME280_humidity;BME280_pressure;Samples;Min_cycle;Max_cycle;Signal;HPM_P1;HPM_P2
2021/09/30 04:01:22;;;;;;;2.38;1.20;;;10.80;99.90;;;;;;5520285;23;20229;-69
2021/09/30 04:03:49;;;;;;;1.85;1.10;;;10.80;99.90;;;;;;4933345;29;20217;-69
2021/09/30 04:06:17;;;;;;;3.03;1.35;;;10.80;99.90;;;;;;4934702;28;20265;-69
2021/09/30 04:08:43;;;;;;;1.10;1.10;;;10.80;99.90;;;;;;4936835;29;20214;-69
2021/09/30 04:11:10;;;;;;;1.40;1.30;;;10.80;99.90;;;;;;4938476;29;20278;-69
2021/09/30 04:13:38;;;;;;;3.90;1.40;;;10.80;99.90;;;;;;4938063;29;20227;-69
2021/09/30 04:16:06;;;;;;;4.40;1.70;;;10.80;99.90;;;;;;4938134;28;20356;-69
2021/09/30 04:18:34;;;;;;;6.38;1.33;;;10.70;99.90;;;;;;4922916;29;20718;-69
2021/09/30 04:21:00;;;;;;;1.80;1.40;;;10.70;99.90;;;;;;4919263;29;20234;-71
2021/09/30 04:23:27;;;;;;;1.85;1.50;;;10.70;99.90;;;;;;4919004;29;20222;-72
2021/09/30 04:25:54;;;;;;;4.47;1.98;;;10.80;99.90;;;;;;4919722;29;20215;-73
2021/09/30 04:28:21;;;;;;;1.33;1.20;;;10.70;99.90;;;;;;4917931;29;20218;-72
2021/09/30 04:30:47;;;;;;;1.98;1.63;;;10.70;99.90;;;;;;4918966;29;20717;-72
2021/09/30 04:33:14;;;;;;;2.30;1.52;;;10.70;99.90;;;;;;4917826;29;20206;-73
2021/09/30 04:35:42;;;;;;;2.47;1.15;;;10.70;99.90;;;;;;4918931;29;20265;-72
2021/09/30 04:38:09;;;;;;;3.15;1.48;;;10.70;99.90;;;;;;4919044;29;20282;-72
2021/09/30 04:40:36;;;;;;;1.52;0.98;;;10.70;99.90;;;;;;4918995;29;20237;-72
2021/09/30 04:43:03;;;;;;;4.03;1.25;;;10.70;99.90;;;;;;4918392;29;20714;-72
2021/09/30 04:45:30;;;;;;;4.10;1.92;;;10.70;99.90;;;;;;4918649;29;20214;-72
2021/09/30 04:47:56;;;;;;;1.35;1.35;;;10.70;99.90;;;;;;4917752;29;20206;-73
2021/09/30 04:50:23;;;;;;;1.50;1.42;;;10.70;99.90;;;;;;4918475;29;20214;-72
2021/09/30 04:52:52;;;;;;;2.13;1.27;;;10.70;99.90;;;;;;4918424;29;20265;-73
2021/09/30 04:55:19;;;;;;;4.85;1.05;;;10.70;99.90;;;;;;4918703;29;20215;-72
2021/09/30 04:57:45;;;;;;;2.67;1.67;;;10.70;99.90;;;;;;4918410;29;20651;-73
2021/09/30 05:00:13;;;;;;;1.75;1.58;;;10.60;99.90;;;;;;4918834;29;20372;-72
2021/09/30 05:02:40;;;;;;;3.42;1.58;;;10.60;99.90;;;;;;4918028;29;20219;-72
2021/09/30 05:05:07;;;;;;;1.88;1.33;;;10.60;99.90;;;;;;4919155;29;20218;-73
2021/09/30 05:07:34;;;;;;;6.55;1.23;;;10.60;99.90;;;;;;4918588;29;20300;-73
2021/09/30 05:10:04;;;;;;;2.17;1.20;;;10.50;99.90;;;;;;4918467;29;20739;-73
2021/09/30 05:12:31;;;;;;;1.65;1.15;;;10.50;99.90;;;;;;4918269;29;20301;-73
2021/09/30 05:14:57;;;;;;;1.48;1.30;;;10.50;99.90;;;;;;4918823;29;20305;-74
2021/09/30 05:17:24;;;;;;;5.65;1.58;;;10.50;99.90;;;;;;4917809;29;20211;-72
2021/09/30 05:19:51;;;;;;;2.15;1.50;;;10.50;99.90;;;;;;4917651;29;20207;-73
2021/09/30 05:22:17;;;;;;;1.60;1.50;;;10.40;99.90;;;;;;4919151;29;20284;-72
2021/09/30 05:24:44;;;;;;;2.35;1.40;;;10.40;99.90;;;;;;4919748;29;20219;-73
2021/09/30 05:27:12;;;;;;;1.60;1.50;;;10.40;99.90;;;;;;4918720;29;20218;-73
2021/09/30 05:29:39;;;;;;;1.52;1.50;;;10.40;99.90;;;;;;4918373;29;20235;-73
2021/09/30 05:32:06;;;;;;;4.95;1.40;;;10.30;99.90;;;;;;4917209;29;20234;-72
2021/09/30 05:34:33;;;;;;;1.23;1.23;;;10.30;99.90;;;;;;4917786;29;20351;-73
2021/09/30 05:37:01;;;;;;;2.22;1.42;;;10.30;99.90;;;;;;4918464;29;20691;-73
2021/09/30 05:39:27;;;;;;;1.33;1.05;;;10.30;99.90;;;;;;4918277;29;20239;-73
2021/09/30 05:41:56;;;;;;;1.50;1.40;;;10.30;99.90;;;;;;4917669;29;20234;-72
2021/09/30 05:44:25;;;;;;;1.65;1.30;;;10.30;99.90;;;;;;4918359;29;20219;-74
2021/09/30 05:46:55;;;;;;;3.20;1.15;;;10.30;99.90;;;;;;4918005;29;20258;-73
2021/09/30 05:49:22;;;;;;;5.93;1.33;;;10.30;99.90;;;;;;4917570;29;20290;-74
2021/09/30 05:51:48;;;;;;;3.38;1.25;;;10.30;99.90;;;;;;4917887;29;20341;-73
2021/09/30 05:54:15;;;;;;;5.00;1.10;;;10.30;99.90;;;;;;4918586;29;20221;-73
2021/09/30 05:56:42;;;;;;;4.00;1.20;;;10.30;99.90;;;;;;4918196;29;20214;-72
2021/09/30 05:59:09;;;;;;;1.23;1.10;;;10.30;99.90;;;;;;4918212;29;20270;-74
2021/09/30 06:10:23;;;;;;;4.22;1.23;;;10.40;99.90;;;;;;4917512;29;20281;-72
2021/09/30 06:12:53;;;;;;;3.22;1.38;;;10.40;99.90;;;;;;4917009;29;20283;-72
2021/09/30 06:15:26;;;;;;;1.30;1.17;;;10.40;99.90;;;;;;4917446;29;20255;-72
2021/09/30 06:17:56;;;;;;;1.63;1.38;;;10.40;99.90;;;;;;4916135;29;20734;-71
2021/09/30 06:20:23;;;;;;;5.72;1.42;;;10.50;99.90;;;;;;4917790;29;20587;-72
2021/09/30 06:22:50;;;;;;;1.63;1.10;;;10.50;99.90;;;;;;4916972;29;20270;-72
2021/09/30 06:25:17;;;;;;;2.50;1.20;;;10.60;99.90;;;;;;4917479;29;20211;-71
2021/09/30 06:27:43;;;;;;;4.88;1.10;;;10.60;99.90;;;;;;4916803;29;20221;-72
2021/09/30 06:30:11;;;;;;;1.38;1.17;;;10.70;99.90;;;;;;4917007;29;20325;-71
2021/09/30 06:32:38;;;;;;;4.35;1.35;;;10.70;99.90;;;;;;4915908;29;20226;-72
2021/09/30 06:35:06;;;;;;;3.03;1.52;;;10.70;99.90;;;;;;4917049;29;20293;-74
2021/09/30 06:37:33;;;;;;;1.13;1.10;;;10.80;99.90;;;;;;4916860;29;20557;-71
2021/09/30 06:40:00;;;;;;;1.05;0.90;;;10.80;99.90;;;;;;4916966;29;20600;-71
2021/09/30 06:42:26;;;;;;;4.18;1.05;;;10.90;99.90;;;;;;4916445;29;20230;-72
2021/09/30 06:44:53;;;;;;;2.03;1.00;;;10.90;99.90;;;;;;4917010;29;20214;-72
2021/09/30 06:47:20;;;;;;;3.00;1.02;;;10.90;99.90;;;;;;4915686;29;20210;-72
2021/09/30 06:49:46;;;;;;;1.60;1.05;;;10.90;99.90;;;;;;4916696;29;20334;-71
2021/09/30 06:52:14;;;;;;;1.20;1.15;;;10.90;99.90;;;;;;4916391;29;20258;-72
2021/09/30 06:54:41;;;;;;;2.05;1.20;;;11.00;99.90;;;;;;4916715;29;20222;-72
2021/09/30 06:57:08;;;;;;;1.00;1.00;;;11.00;99.90;;;;;;4916591;29;20207;-71
2021/09/30 06:59:35;;;;;;;3.40;1.15;;;11.00;99.90;;;;;;4916253;29;20206;-71
2021/09/30 07:02:06;;;;;;;0.82;0.82;;;11.00;99.90;;;;;;4915860;29;20329;-71
2021/09/30 07:04:34;;;;;;;5.03;1.20;;;11.00;99.90;;;;;;4916129;29;20305;-71
2021/09/30 07:07:01;;;;;;;2.85;1.10;;;11.00;99.90;;;;;;4916433;29;20679;-71
2021/09/30 07:09:30;;;;;;;3.70;1.35;;;11.00;99.90;;;;;;4916400;29;20242;-74
2021/09/30 07:11:59;;;;;;;1.50;1.25;;;11.00;99.90;;;;;;4916342;29;20231;-73
2021/09/30 07:14:26;;;;;;;0.98;0.88;;;11.10;99.90;;;;;;4916713;29;20222;-74
2021/09/30 07:16:52;;;;;;;1.63;1.10;;;11.10;99.90;;;;;;4916364;29;20536;-73
2021/09/30 07:19:19;;;;;;;2.65;0.85;;;11.10;99.90;;;;;;4916108;29;20665;-74
2021/09/30 07:21:46;;;;;;;1.48;1.13;;;11.20;99.90;;;;;;4916616;29;20282;-72
2021/09/30 07:24:13;;;;;;;1.23;1.02;;;11.20;99.90;;;;;;4916269;29;20695;-74
2021/09/30 07:26:41;;;;;;;1.88;1.27;;;11.20;99.90;;;;;;4916343;29;20658;-74
2021/09/30 07:29:08;;;;;;;1.95;1.45;;;11.30;99.90;;;;;;4916731;29;20281;-74
2021/09/30 07:31:34;;;;;;;1.13;0.93;;;11.30;99.90;;;;;;4916693;29;20242;-74
2021/09/30 07:34:01;;;;;;;1.75;1.50;;;11.40;99.90;;;;;;4915830;29;20270;-74
2021/09/30 07:36:28;;;;;;;0.82;0.82;;;11.40;99.90;;;;;;4916558;29;20210;-74
2021/09/30 07:38:55;;;;;;;1.48;0.95;;;11.40;99.90;;;;;;4915920;29;20265;-73
2021/09/30 07:41:21;;;;;;;1.05;1.05;;;11.40;99.90;;;;;;4916016;29;20242;-73
2021/09/30 07:43:49;;;;;;;2.78;1.17;;;11.40;99.90;;;;;;4915472;29;20215;-73
2021/09/30 07:46:16;;;;;;;1.85;1.75;;;11.50;99.90;;;;;;4916675;29;20581;-74
2021/09/30 07:48:43;;;;;;;1.27;1.17;;;11.50;99.90;;;;;;4915573;29;20674;-74
2021/09/30 07:51:09;;;;;;;1.17;1.00;;;11.70;99.90;;;;;;4916435;29;20234;-73
2021/09/30 07:53:36;;;;;;;1.00;1.00;;;11.70;99.90;;;;;;4916089;29;20237;-73
2021/09/30 07:56:03;;;;;;;5.75;1.92;;;11.80;99.90;;;;;;4916614;29;20282;-73
2021/09/30 07:58:30;;;;;;;3.08;0.95;;;11.80;99.90;;;;;;4917030;29;20218;-73
2021/09/30 08:00:59;;;;;;;2.20;1.30;;;11.80;99.90;;;;;;4917043;29;20367;-73
2021/09/30 08:03:27;;;;;;;1.35;1.25;;;11.90;99.90;;;;;;4915752;29;20226;-74
2021/09/30 08:05:54;;;;;;;1.20;1.20;;;12.00;99.90;;;;;;4916524;29;20217;-73
2021/09/30 08:08:21;;;;;;;1.58;1.20;;;12.00;99.90;;;;;;4916611;29;20245;-73
2021/09/30 08:10:47;;;;;;;3.17;1.27;;;12.00;99.90;;;;;;4917041;29;20289;-74
2021/09/30 08:13:14;;;;;;;2.35;1.05;;;12.00;99.90;;;;;;4916021;29;20214;-73
2021/09/30 08:15:41;;;;;;;5.68;1.77;;;12.00;99.90;;;;;;4917215;29;20279;-73
2021/09/30 08:18:09;;;;;;;1.20;1.20;;;12.10;99.90;;;;;;4916140;29;20215;-73
2021/09/30 08:20:41;;;;;;;2.47;1.10;;;12.10;99.90;;;;;;4916897;29;20321;-73
2021/09/30 08:23:08;;;;;;;2.05;1.20;;;12.20;99.90;;;;;;4916207;29;20687;-73
2021/09/30 08:25:35;;;;;;;2.05;1.35;;;12.20;99.90;;;;;;4917602;29;20595;-74
2021/09/30 08:28:02;;;;;;;1.42;1.10;;;12.20;99.90;;;;;;4915609;29;20219;-72
2021/09/30 08:30:29;;;;;;;1.73;1.17;;;12.20;99.90;;;;;;4915762;29;20234;-72
2021/09/30 08:32:56;;;;;;;2.58;1.52;;;12.20;99.90;;;;;;4914496;29;20214;-70
2021/09/30 08:35:24;;;;;;;1.30;1.10;;;12.30;99.90;;;;;;4915870;29;20603;-70
2021/09/30 08:37:50;;;;;;;1.83;1.20;;;12.50;99.90;;;;;;4915213;29;20645;-70
2021/09/30 08:40:17;;;;;;;0.90;0.90;;;12.50;99.90;;;;;;4915719;29;20214;-70
2021/09/30 08:42:47;;;;;;;4.28;0.95;;;12.50;99.90;;;;;;4915614;29;20211;-73
2021/09/30 08:45:14;;;;;;;1.30;1.20;;;12.40;99.90;;;;;;4915914;29;20211;-71
2021/09/30 08:47:41;;;;;;;1.20;1.10;;;12.40;99.90;;;;;;4914591;29;20218;-71
2021/09/30 08:50:09;;;;;;;2.28;1.15;;;12.40;99.90;;;;;;4915451;29;20219;-72
2021/09/30 08:52:40;;;;;;;1.55;1.55;;;12.40;99.90;;;;;;4915479;29;20702;-71
2021/09/30 08:55:07;;;;;;;3.42;1.05;;;12.40;99.90;;;;;;4918545;29;20274;-74
2021/09/30 08:57:34;;;;;;;1.08;1.08;;;12.50;99.90;;;;;;4918673;29;20214;-71
2021/09/30 09:00:04;;;;;;;3.45;1.40;;;12.50;99.90;;;;;;4918908;29;20214;-71
2021/09/30 09:02:31;;;;;;;1.42;1.30;;;12.60;99.90;;;;;;4917273;29;20291;-70
2021/09/30 09:05:00;;;;;;;4.82;1.15;;;12.80;99.90;;;;;;4918883;29;20439;-71
2021/09/30 09:07:29;;;;;;;2.38;1.30;;;12.90;99.90;;;;;;4919450;29;20226;-71
2021/09/30 09:09:58;;;;;;;3.65;1.40;;;13.00;99.90;;;;;;4918665;29;20262;-71
2021/09/30 09:12:31;;;;;;;1.40;1.30;;;13.10;99.90;;;;;;4918167;29;20638;-71
2021/09/30 09:14:59;;;;;;;2.70;1.15;;;13.10;99.90;;;;;;4918649;29;20217;-71
2021/09/30 09:17:26;;;;;;;1.77;1.67;;;13.10;99.90;;;;;;4917853;29;20286;-71
2021/09/30 09:19:54;;;;;;;1.37;1.13;;;13.20;99.90;;;;;;4918454;29;20211;-70
2021/09/30 09:22:23;;;;;;;1.52;0.90;;;13.30;99.90;;;;;;4917890;29;20496;-71
2021/09/30 09:25:00;;;;;;;1.27;1.27;;;13.40;99.90;;;;;;4918259;29;20218;-71
2021/09/30 09:27:46;;;;;;;2.50;1.30;;;13.50;99.90;;;;;;4918015;29;20216;-71
2021/09/30 09:30:33;;;;;;;1.70;1.30;;;13.50;99.90;;;;;;4918441;29;20470;-71
2021/09/30 09:33:06;;;;;;;3.30;1.30;;;13.70;99.90;;;;;;4917110;29;20537;-71
2021/09/30 09:35:50;;;;;;;3.23;1.50;;;13.90;99.90;;;;;;4919516;29;20471;-71
2021/09/30 09:38:16;;;;;;;5.03;1.40;;;14.10;99.90;;;;;;4920124;29;20467;-71
2021/09/30 09:40:45;;;;;;;1.10;1.03;;;14.20;99.90;;;;;;4918523;29;20483;-71
2021/09/30 09:43:44;;;;;;;1.67;1.57;;;14.30;99.90;;;;;;4917922;29;20578;-71
2021/09/30 09:46:12;;;;;;;3.10;1.73;;;14.40;99.90;;;;;;4878576;29;20559;-72
2021/09/30 09:48:40;;;;;;;1.40;1.30;;;14.40;99.90;;;;;;4908713;29;20466;-71
2021/09/30 09:51:10;;;;;;;1.90;1.00;;;14.50;99.90;;;;;;4918390;29;20506;-71
2021/09/30 09:53:37;;;;;;;1.70;1.37;;;14.60;99.90;;;;;;4917582;29;20466;-71
2021/09/30 09:56:17;;;;;;;2.77;1.20;;;14.50;99.90;;;;;;4917754;29;21038;-71
2021/09/30 09:58:49;;;;;;;1.47;1.37;;;14.50;99.90;;;;;;4917944;29;20564;-71
2021/09/30 10:01:20;;;;;;;1.40;1.30;;;14.60;99.90;;;;;;4917838;29;20490;-72
2021/09/30 10:03:57;;;;;;;1.90;1.47;;;14.50;99.90;;;;;;4916674;29;20466;-71
2021/09/30 10:06:24;;;;;;;1.70;1.20;;;14.50;99.90;;;;;;4916025;29;20485;-72
2021/09/30 10:08:50;;;;;;;1.63;1.40;;;14.50;99.90;;;;;;4917400;29;20470;-72
2021/09/30 10:11:18;;;;;;;2.13;1.67;;;14.40;99.90;;;;;;4917110;29;20490;-71
2021/09/30 10:13:46;;;;;;;3.00;1.40;;;14.40;99.90;;;;;;4916595;29;20518;-71
2021/09/30 10:16:17;;;;;;;1.60;1.50;;;14.50;99.90;;;;;;4917586;29;20541;-72
2021/09/30 10:18:44;;;;;;;1.33;1.13;;;14.40;99.90;;;;;;4917876;29;20553;-71
2021/09/30 10:21:11;;;;;;;1.70;1.07;;;14.50;99.90;;;;;;4917054;29;20490;-72
2021/09/30 10:23:38;;;;;;;1.23;1.13;;;14.40;99.90;;;;;;4916171;29;20475;-72
2021/09/30 10:26:14;;;;;;;1.50;1.40;;;14.50;99.90;;;;;;4917091;29;20484;-72
2021/09/30 10:28:45;;;;;;;5.30;1.50;;;14.60;99.90;;;;;;4916631;29;20533;-71
2021/09/30 10:31:30;;;;;;;2.83;1.80;;;14.60;99.90;;;;;;4916706;29;20490;-71
2021/09/30 10:33:59;;;;;;;0.90;0.90;;;14.60;99.90;;;;;;4915720;29;20466;-72
2021/09/30 10:36:38;;;;;;;2.20;0.93;;;14.70;99.90;;;;;;4916403;29;20559;-71
2021/09/30 10:39:15;;;;;;;3.10;1.27;;;14.90;99.90;;;;;;4916510;29;20533;-71
2021/09/30 10:41:42;;;;;;;3.93;1.70;;;15.20;99.90;;;;;;4916940;29;20486;-71
2021/09/30 10:44:14;;;;;;;2.27;1.00;;;15.30;99.90;;;;;;4916848;29;20881;-71
2021/09/30 10:46:47;;;;;;;4.10;1.10;;;15.40;99.90;;;;;;4918204;29;21022;-71
2021/09/30 10:49:34;;;;;;;3.60;1.50;;;15.50;99.90;;;;;;4916234;29;20892;-71
2021/09/30 10:52:20;;;;;;;2.30;1.33;;;15.60;99.90;;;;;;4916457;29;20768;-72
2021/09/30 10:54:53;;;;;;;3.80;1.20;;;15.50;99.90;;;;;;4906510;29;20494;-71
2021/09/30 10:57:43;;;;;;;5.30;1.30;;;15.60;99.90;;;;;;4916411;29;20473;-70
2021/09/30 11:00:30;;;;;;;2.47;1.20;;;15.70;99.90;;;;;;4916727;29;20462;-70
2021/09/30 11:03:22;;;;;;;2.00;0.80;;;15.60;99.90;;;;;;4915328;29;20467;-70
2021/09/30 11:06:12;;;;;;;0.90;0.90;;;15.70;99.90;;;;;;4916446;29;20932;-71
2021/09/30 11:08:39;;;;;;;3.90;1.10;;;15.50;99.90;;;;;;4916227;29;20875;-70
2021/09/30 11:11:11;;;;;;;2.43;1.30;;;15.50;99.90;;;;;;4916411;29;20494;-69
2021/09/30 11:13:39;;;;;;;0.97;0.97;;;15.50;99.90;;;;;;4915694;29;20766;-71
2021/09/30 11:16:10;;;;;;;2.37;1.43;;;15.50;99.90;;;;;;4916383;29;20470;-71
2021/09/30 11:18:46;;;;;;;2.53;1.23;;;15.60;99.90;;;;;;4914330;29;20847;-71
2021/09/30 11:21:52;;;;;;;4.73;1.37;;;15.50;99.90;;;;;;4916384;29;20533;-71
2021/09/30 11:24:25;;;;;;;5.43;0.90;;;15.30;99.90;;;;;;4911075;29;20485;-71
2021/09/30 11:27:08;;;;;;;2.37;1.30;;;15.30;99.90;;;;;;4916441;29;20466;-71
2021/09/30 11:29:35;;;;;;;3.90;1.60;;;15.20;99.90;;;;;;4914525;29;20487;-71
2021/09/30 11:32:26;;;;;;;4.37;1.50;;;15.30;99.90;;;;;;4915650;29;20554;-72
2021/09/30 11:35:00;;;;;;;1.13;1.00;;;15.40;99.90;;;;;;4917281;29;20823;-72
2021/09/30 11:37:35;;;;;;;2.23;1.17;;;15.40;99.90;;;;;;4916515;29;20472;-72
2021/09/30 11:40:05;;;;;;;0.90;0.83;;;15.40;99.90;;;;;;4916161;29;20484;-72
2021/09/30 11:42:37;;;;;;;3.33;1.13;;;15.50;99.90;;;;;;4915616;29;20474;-72
2021/09/30 11:45:09;;;;;;;1.60;0.73;;;15.40;99.90;;;;;;4916290;29;20474;-72
2021/09/30 11:47:37;;;;;;;3.73;0.70;;;15.40;99.90;;;;;;4915104;29;20572;-73
2021/09/30 11:50:06;;;;;;;1.50;1.10;;;15.40;99.90;;;;;;4916302;29;20538;-72
2021/09/30 11:52:33;;;;;;;1.10;1.00;;;15.50;99.90;;;;;;4915889;29;20501;-72
2021/09/30 11:55:15;;;;;;;2.63;1.00;;;15.70;99.90;;;;;;4915933;29;20466;-72
2021/09/30 11:57:53;;;;;;;2.80;1.07;;;15.80;99.90;;;;;;4915955;29;20561;-72
2021/09/30 12:00:20;;;;;;;0.70;0.70;;;15.90;99.90;;;;;;4913893;29;20958;-71
2021/09/30 12:02:56;;;;;;;2.10;1.43;;;15.90;99.90;;;;;;4914632;29;20467;-71
2021/09/30 12:05:25;;;;;;;4.00;0.73;;;16.00;99.90;;;;;;4915941;29;20465;-71
2021/09/30 12:07:52;;;;;;;5.13;1.40;;;16.00;99.90;;;;;;4915340;29;20502;-71
2021/09/30 12:10:19;;;;;;;4.07;1.43;;;16.00;99.90;;;;;;4915882;29;20466;-70
2021/09/30 12:12:46;;;;;;;2.90;0.77;;;15.90;99.90;;;;;;4913893;29;20506;-72
2021/09/30 12:15:13;;;;;;;1.37;1.00;;;15.80;99.90;;;;;;4915640;29;20565;-71
2021/09/30 12:17:42;;;;;;;1.20;0.73;;;15.80;99.90;;;;;;4914855;29;20891;-71
2021/09/30 12:20:12;;;;;;;1.50;1.03;;;15.90;99.90;;;;;;4915788;29;20474;-71
2021/09/30 12:22:41;;;;;;;2.00;0.73;;;16.10;99.90;;;;;;4915397;29;20462;-71
2021/09/30 12:25:11;;;;;;;3.80;1.33;;;16.20;99.90;;;;;;4913817;29;20980;-71
2021/09/30 12:27:40;;;;;;;1.63;1.20;;;16.40;99.90;;;;;;4915701;29;20474;-71
2021/09/30 12:30:09;;;;;;;3.30;0.90;;;16.60;99.90;;;;;;4918331;29;20533;-71
2021/09/30 12:32:39;;;;;;;1.30;0.97;;;16.70;99.90;;;;;;4917614;29;20494;-71
2021/09/30 12:35:11;;;;;;;3.20;0.77;;;16.70;99.90;;;;;;4918808;29;20994;-71
2021/09/30 12:37:45;;;;;;;1.37;1.27;;;16.70;99.90;;;;;;4918888;29;20470;-71
2021/09/30 12:40:14;;;;;;;1.43;0.90;;;16.50;99.90;;;;;;4919092;29;20517;-71
2021/09/30 12:43:00;;;;;;;2.40;0.90;;;16.40;99.90;;;;;;4918939;29;20612;-70
2021/09/30 12:45:27;;;;;;;2.03;1.20;;;16.30;99.90;;;;;;4918791;29;21025;-71
2021/09/30 12:48:05;;;;;;;2.30;0.87;;;16.20;99.90;;;;;;4918286;29;20477;-71
2021/09/30 12:50:44;;;;;;;2.70;1.20;;;16.10;99.90;;;;;;4919234;29;20490;-70
2021/09/30 12:53:12;;;;;;;2.83;0.83;;;16.20;99.90;;;;;;4918726;29;20497;-70
2021/09/30 12:55:39;;;;;;;2.20;0.93;;;16.30;99.90;;;;;;4918951;29;20478;-71
2021/09/30 12:58:06;;;;;;;0.90;0.90;;;16.30;99.90;;;;;;4918476;29;20516;-70
2021/09/30 13:00:36;;;;;;;1.60;1.13;;;16.40;99.90;;;;;;4918889;29;20486;-70
2021/09/30 13:03:16;;;;;;;6.07;1.10;;;16.40;99.90;;;;;;4917535;29;20462;-70
2021/09/30 13:05:49;;;;;;;2.70;1.23;;;16.50;99.90;;;;;;4918850;29;20472;-70
2021/09/30 13:08:34;;;;;;;1.57;0.93;;;16.50;99.90;;;;;;4918134;29;20481;-70
2021/09/30 13:11:20;;;;;;;1.67;1.33;;;16.50;99.90;;;;;;4919454;29;20573;-72
2021/09/30 13:13:47;;;;;;;1.67;1.43;;;16.40;99.90;;;;;;4918229;29;20979;-72
2021/09/30 13:16:23;;;;;;;1.67;1.17;;;16.30;99.90;;;;;;4918986;29;20534;-69
2021/09/30 13:18:50;;;;;;;1.50;1.40;;;16.30;99.90;;;;;;4917273;29;20482;-72
2021/09/30 13:21:18;;;;;;;1.70;1.60;;;16.20;99.90;;;;;;4919254;29;20490;-72
2021/09/30 13:23:45;;;;;;;2.47;1.03;;;16.10;99.90;;;;;;4918555;29;20462;-72
2021/09/30 13:26:11;;;;;;;4.17;1.10;;;16.10;99.90;;;;;;4918824;29;20474;-72
2021/09/30 13:28:38;;;;;;;1.57;1.13;;;16.10;99.90;;;;;;4919358;29;20507;-73
2021/09/30 13:31:05;;;;;;;1.20;1.10;;;16.10;99.90;;;;;;4918590;29;20490;-72
2021/09/30 13:33:32;;;;;;;3.73;1.10;;;16.20;99.90;;;;;;4916935;29;20490;-69
2021/09/30 13:35:59;;;;;;;2.63;1.40;;;16.30;99.90;;;;;;4918113;29;20548;-69
2021/09/30 13:38:27;;;;;;;2.93;1.30;;;16.30;99.90;;;;;;4918149;29;20538;-71
2021/09/30 13:40:54;;;;;;;5.10;1.10;;;16.30;99.90;;;;;;4917011;29;20490;-69
2021/09/30 13:43:20;;;;;;;1.23;1.23;;;16.20;99.90;;;;;;4917755;29;20874;-69
2021/09/30 13:45:47;;;;;;;4.37;2.13;;;16.00;99.90;;;;;;4917761;29;20485;-69
2021/09/30 13:48:14;;;;;;;4.87;1.40;;;15.90;99.90;;;;;;4916892;29;20467;-69
2021/09/30 13:50:41;;;;;;;1.10;1.10;;;15.90;99.90;;;;;;4918173;29;20486;-70
2021/09/30 13:53:07;;;;;;;6.43;1.10;;;15.80;99.90;;;;;;4917196;29;20490;-70
2021/09/30 13:55:35;;;;;;;2.73;0.93;;;15.70;99.90;;;;;;4917948;29;20474;-70
2021/09/30 13:58:02;;;;;;;2.57;1.30;;;15.80;99.90;;;;;;4917676;29;20529;-69
2021/09/30 14:00:29;;;;;;;1.97;1.07;;;15.80;99.90;;;;;;4917117;29;20499;-70
2021/09/30 14:02:55;;;;;;;0.93;0.93;;;16.00;99.90;;;;;;4916669;29;20462;-70
2021/09/30 14:05:22;;;;;;;4.03;1.27;;;16.10;99.90;;;;;;4917891;29;20471;-69
2021/09/30 14:07:49;;;;;;;2.23;1.37;;;16.10;99.90;;;;;;4917252;29;20466;-69
2021/09/30 14:10:20;;;;;;;1.23;1.00;;;16.10;99.90;;;;;;4917396;29;20494;-70
2021/09/30 14:12:49;;;;;;;0.97;0.97;;;16.00;99.90;;;;;;4916884;29;20491;-71
2021/09/30 14:15:17;;;;;;;1.33;0.90;;;16.10;99.90;;;;;;4917586;29;20900;-70
2021/09/30 14:17:43;;;;;;;1.53;1.13;;;16.10;99.90;;;;;;4916454;29;20474;-70
2021/09/30 14:20:11;;;;;;;2.30;1.00;;;16.10;99.90;;;;;;4917598;29;21038;-70
2021/09/30 14:22:39;;;;;;;1.40;1.20;;;16.20;99.90;;;;;;4916752;29;20462;-70
2021/09/30 14:25:07;;;;;;;1.30;1.30;;;16.30;99.90;;;;;;4917191;29;21010;-70
2021/09/30 14:27:34;;;;;;;4.73;1.50;;;16.30;99.90;;;;;;4916999;29;20656;-70
2021/09/30 14:30:03;;;;;;;2.10;1.10;;;16.30;99.90;;;;;;4917399;29;20469;-70
2021/09/30 14:32:29;;;;;;;2.40;1.20;;;16.30;99.90;;;;;;4916031;29;20490;-70
2021/09/30 14:34:56;;;;;;;3.33;1.40;;;16.40;99.90;;;;;;4917121;29;21026;-70
2021/09/30 14:37:23;;;;;;;0.97;0.90;;;16.50;99.90;;;;;;4916863;29;20470;-70
2021/09/30 14:39:50;;;;;;;2.87;1.20;;;16.60;99.90;;;;;;4916909;29;20470;-72
2021/09/30 14:42:16;;;;;;;1.30;1.30;;;16.60;99.90;;;;;;4916286;29;21054;-70
2021/09/30 14:44:44;;;;;;;4.43;0.80;;;16.60;99.90;;;;;;4916750;29;20983;-70
2021/09/30 14:47:12;;;;;;;1.70;1.10;;;16.50;99.90;;;;;;4916125;29;20956;-69
2021/09/30 14:49:40;;;;;;;1.10;1.00;;;16.50;99.90;;;;;;4916389;29;20811;-69
2021/09/30 14:52:07;;;;;;;6.93;1.20;;;16.60;99.90;;;;;;4915773;29;20494;-69
2021/09/30 14:54:34;;;;;;;1.70;1.57;;;16.60;99.90;;;;;;4916275;29;20474;-69
2021/09/30 14:57:01;;;;;;;2.67;1.40;;;16.50;99.90;;;;;;4916455;29;20470;-69
2021/09/30 14:59:27;;;;;;;2.67;1.20;;;16.50;99.90;;;;;;4916367;29;20475;-69
2021/09/30 15:01:54;;;;;;;1.70;1.40;;;16.50;99.90;;;;;;4916680;29;20916;-69
2021/09/30 15:04:22;;;;;;;0.93;0.83;;;16.40;99.90;;;;;;4934538;29;20473;-69
2021/09/30 15:06:50;;;;;;;4.43;1.80;;;16.40;99.90;;;;;;4935374;29;20525;-69
2021/09/30 15:09:17;;;;;;;3.63;1.40;;;16.30;99.90;;;;;;4935059;29;20494;-68
2021/09/30 15:11:44;;;;;;;1.70;1.27;;;16.10;99.90;;;;;;4935314;28;20493;-69
2021/09/30 15:14:11;;;;;;;0.73;0.73;;;16.00;99.90;;;;;;4934820;29;20893;-69
2021/09/30 15:16:41;;;;;;;1.43;0.87;;;15.90;99.90;;;;;;4935111;29;20469;-69
2021/09/30 15:19:09;;;;;;;1.77;1.67;;;15.90;99.90;;;;;;4934191;29;20470;-69
2021/09/30 15:21:37;;;;;;;1.00;0.90;;;15.90;99.90;;;;;;4935690;29;20500;-69
2021/09/30 15:24:05;;;;;;;1.80;0.77;;;15.90;99.90;;;;;;4934700;29;20470;-70
2021/09/30 15:26:33;;;;;;;2.83;1.30;;;15.80;99.90;;;;;;4935172;28;20963;-69
2021/09/30 15:29:00;;;;;;;2.53;1.37;;;15.80;99.90;;;;;;4934808;29;20473;-70
2021/09/30 15:31:28;;;;;;;1.93;1.23;;;15.70;99.90;;;;;;4935086;29;20882;-69
2021/09/30 15:33:57;;;;;;;2.10;1.40;;;15.70;99.90;;;;;;4933767;29;20848;-71
2021/09/30 15:36:24;;;;;;;4.63;1.10;;;15.70;99.90;;;;;;4918100;29;20483;-71
2021/09/30 15:38:54;;;;;;;3.10;1.00;;;15.60;99.90;;;;;;4915915;29;20577;-71
2021/09/30 15:41:22;;;;;;;2.63;0.90;;;15.60;99.90;;;;;;4916590;29;20486;-71
2021/09/30 15:43:49;;;;;;;3.50;0.90;;;15.60;99.90;;;;;;4917910;29;20839;-71
2021/09/30 15:46:17;;;;;;;1.50;0.90;;;15.60;99.90;;;;;;4919029;29;20474;-71
2021/09/30 15:48:43;;;;;;;4.97;0.93;;;15.50;99.90;;;;;;4917416;29;20482;-70
2021/09/30 15:51:11;;;;;;;1.90;1.07;;;15.50;99.90;;;;;;4917301;29;20491;-70
2021/09/30 15:53:39;;;;;;;2.23;0.63;;;15.40;99.90;;;;;;4918087;29;20515;-70
2021/09/30 15:56:07;;;;;;;1.20;1.00;;;15.30;99.90;;;;;;4916681;29;20473;-70
2021/09/30 15:58:34;;;;;;;4.03;1.20;;;15.30;99.90;;;;;;4915560;29;20522;-70
2021/09/30 16:01:01;;;;;;;1.80;1.00;;;15.20;99.90;;;;;;4915603;29;20511;-71
2021/09/30 16:03:28;;;;;;;4.40;1.10;;;15.10;99.90;;;;;;4915395;29;20526;-70
2021/09/30 16:05:54;;;;;;;7.20;1.37;;;15.10;99.90;;;;;;4919630;29;20466;-70
2021/09/30 16:08:21;;;;;;;7.83;1.90;;;15.00;99.90;;;;;;4919940;29;20469;-70
2021/09/30 16:10:48;;;;;;;1.17;0.90;;;14.90;99.90;;;;;;4919632;29;20498;-70
2021/09/30 16:13:16;;;;;;;1.90;0.80;;;14.90;99.90;;;;;;4918866;29;20486;-70
2021/09/30 16:15:43;;;;;;;2.53;0.90;;;14.90;99.90;;;;;;4919641;29;20883;-70
2021/09/30 16:18:10;;;;;;;1.10;0.87;;;14.80;99.90;;;;;;4918692;29;20604;-70
2021/09/30 16:20:37;;;;;;;1.60;1.43;;;14.80;99.90;;;;;;4919535;29;20514;-70
2021/09/30 16:23:04;;;;;;;3.13;0.90;;;14.70;99.90;;;;;;4918787;29;20501;-70
2021/09/30 16:25:30;;;;;;;2.10;1.20;;;14.60;99.90;;;;;;4919485;29;20815;-70
2021/09/30 16:27:57;;;;;;;1.63;1.30;;;14.50;99.90;;;;;;4919357;29;20608;-72
2021/09/30 16:30:25;;;;;;;2.33;0.87;;;14.50;99.90;;;;;;4919765;29;20541;-73
2021/09/30 16:32:52;;;;;;;0.97;0.90;;;14.40;99.90;;;;;;4918432;29;20916;-70
2021/09/30 16:35:18;;;;;;;1.43;1.23;;;14.30;99.90;;;;;;4919701;29;21031;-71
2021/09/30 16:37:45;;;;;;;5.10;2.00;;;14.30;99.90;;;;;;4922751;29;20470;-72
2021/09/30 16:40:12;;;;;;;1.27;1.13;;;14.30;99.90;;;;;;4919332;29;20964;-72
2021/09/30 16:42:39;;;;;;;1.90;1.13;;;14.20;99.90;;;;;;4919587;29;20471;-72
2021/09/30 16:45:08;;;;;;;1.30;1.30;;;14.20;99.90;;;;;;4919687;29;20485;-71
2021/09/30 16:47:37;;;;;;;1.03;1.03;;;14.10;99.90;;;;;;4918463;29;20569;-71
2021/09/30 16:50:05;;;;;;;1.43;1.13;;;14.00;99.90;;;;;;4919283;29;20823;-71
2021/09/30 16:52:32;;;;;;;1.47;1.20;;;14.00;99.90;;;;;;4922600;29;20473;-71
2021/09/30 16:54:59;;;;;;;1.30;1.20;;;13.90;99.90;;;;;;4919187;29;20482;-71
2021/09/30 16:57:26;;;;;;;1.40;1.30;;;13.90;99.90;;;;;;4920800;29;21042;-71
2021/09/30 16:59:52;;;;;;;1.67;1.57;;;13.90;99.90;;;;;;4926820;29;20951;-71
2021/09/30 17:02:19;;;;;;;2.10;1.93;;;13.80;99.90;;;;;;4918969;29;20493;-72
2021/09/30 17:04:47;;;;;;;0.93;0.67;;;13.80;99.90;;;;;;4918709;29;20486;-70
2021/09/30 17:07:14;;;;;;;2.83;1.43;;;13.80;99.90;;;;;;4918703;29;20521;-70